Nichiryu Maru — JG5632 — position and weather

sailwx.info

Track history (hours):
 
Tides and Currents Weather Stations Pressure Air Temp Water Temp Dewpoint Dewpoint Depression Visibility Wind Speed Wind Dir Waves Ship Positions

Nichiryu Maru

Last reported at 2014-Jul-28 07:28 UTC. Time now 2014-Jul-28 08:23 UTC.
Position N 35°19' E 139°39'.

Length 158 m; draft 6.5 m.

Type: Cargo ship. MMSI: 43100939.

Date/timePositionNaut miles runAvg speedWind from/ knotsBaromVisibWave heightAir tempDewpointWater temp
2014-Jul-28 07:28N 35°19' E 139°39'0 0.0
2014-Jul-28 06:31N 35°19' E 139°39'0 0.0
2014-Jul-28 05:28N 35°19' E 139°39'0 0.0
2014-Jul-28 04:31N 35°19' E 139°39'0 0.0
2014-Jul-28 03:31N 35°19' E 139°39'0 0.0
2014-Jul-28 02:28N 35°19' E 139°39'0 0.0
2014-Jul-28 01:28N 35°19' E 139°39'0 0.0
2014-Jul-28 00:28N 35°19' E 139°39'0 0.0
2014-Jul-27 23:31N 35°19' E 139°39'2 1.8
2014-Jul-27 22:33N 35°20' E 139°41'0 0.2
2014-Jul-27 21:33N 35°19' E 139°41'0 0.0
2014-Jul-27 20:33N 35°19' E 139°41'0 0.1
2014-Jul-27 19:33N 35°19' E 139°41'0 0.0
2014-Jul-27 18:33N 35°19' E 139°41'0 0.0
2014-Jul-27 17:33N 35°19' E 139°41'0 0.0
2014-Jul-27 16:30N 35°19' E 139°41'0 0.0
2014-Jul-27 15:33N 35°19' E 139°41'0 0.0
2014-Jul-27 14:33N 35°19' E 139°41'0 0.0
2014-Jul-27 13:33N 35°19' E 139°41'0 0.0
2014-Jul-27 12:30N 35°19' E 139°41'0 0.0
2014-Jul-27 11:33N 35°19' E 139°41'7 7.5
2014-Jul-27 10:34N 35°13' E 139°47'1818.0
2014-Jul-27 09:32N 34°58' E 139°35'4120.1
2014-Jul-27 07:31N 34°32' E 138°56'329 8.4
2014-Jul-25 16:29N 33°46' E 132°22'1919.1
2014-Jul-25 15:29N 33°57' E 132°41'12015.1
2014-Jul-25 07:33N 34°37' E 134°58'1514.9
2014-Jul-25 06:33N 34°39' E 135°16'2 2.3
2014-Jul-25 05:31N 34°41' E 135°13'0 0.0
2014-Jul-25 04:31N 34°41' E 135°13'0 0.0
2014-Jul-25 03:33N 34°41' E 135°13'7 7.1
2014-Jul-25 02:33N 34°34' E 135°14'1919.0
2014-Jul-25 01:33N 34°18' E 135°00'2019.7
2014-Jul-25 00:32N 33°58' E 135°00'17217.2
2014-Jul-24 14:30N 34°26' E 138°26'4318.3
2014-Jul-24 12:10N 34°47' E 139°12'1319.6
2014-Jul-24 11:29N 34°56' E 139°23'1819.6
2014-Jul-24 10:33N 35°06' E 139°42'1312.5
2014-Jul-24 09:34N 35°19' E 139°43'3 3.3
2014-Jul-24 08:30N 35°19' E 139°39'0 0.0
2014-Jul-24 07:33N 35°19' E 139°39'0 0.0
2014-Jul-24 06:33N 35°19' E 139°39'0 0.0
2014-Jul-24 05:33N 35°19' E 139°39'0 0.0
2014-Jul-24 04:30N 35°19' E 139°39'5 5.0
2014-Jul-24 03:33N 35°18' E 139°45'1413.9
2014-Jul-24 02:33N 35°04' E 139°41'1615.6
2014-Jul-24 01:33N 34°53' E 139°28'25919.2
2014-Jul-23 12:05N 33°11' E 134°41'205 4.5
2014-Jul-21 14:31N 34°27' E 138°30'5216.4
2014-Jul-21 11:22N 34°55' E 139°23'1416.8
2014-Jul-21 10:33N 35°03' E 139°36'1515.0
2014-Jul-21 09:34N 35°16' E 139°46'6 5.8
2014-Jul-21 08:27N 35°19' E 139°39'0 0.0
2014-Jul-21 07:33N 35°19' E 139°39'0 0.0
2014-Jul-21 06:33N 35°19' E 139°39'0 0.0
2014-Jul-21 05:33N 35°19' E 139°39'0 0.0
2014-Jul-21 04:33N 35°19' E 139°39'0 0.0
2014-Jul-21 03:33N 35°19' E 139°39'0 0.0
2014-Jul-21 02:33N 35°19' E 139°39'0 0.0
2014-Jul-21 01:33N 35°19' E 139°39'0 0.0
2014-Jul-21 00:33N 35°19' E 139°39'0 0.0
2014-Jul-20 23:34N 35°19' E 139°39'1 1.0
2014-Jul-20 22:33N 35°19' E 139°40'1 1.1
2014-Jul-20 21:34N 35°19' E 139°41'0 0.0
2014-Jul-20 20:31N 35°19' E 139°41'0 0.0
2014-Jul-20 19:34N 35°19' E 139°41'0 0.0
2014-Jul-20 18:31N 35°19' E 139°41'0 0.0
2014-Jul-20 17:34N 35°19' E 139°41'0 0.0
2014-Jul-20 16:34N 35°19' E 139°41'0 0.0
2014-Jul-20 15:34N 35°19' E 139°41'0 0.0
2014-Jul-20 14:34N 35°19' E 139°41'0 0.0
2014-Jul-20 13:31N 35°19' E 139°41'0 0.1
2014-Jul-20 12:34N 35°19' E 139°41'7 7.5
2014-Jul-20 11:33N 35°13' E 139°47'1918.8
2014-Jul-20 10:33N 34°58' E 139°34'233 4.7
2014-Jul-18 08:33N 34°35' E 134°52'1717.2
2014-Jul-18 07:33N 34°37' E 135°12'  
Track history (hours):
 
Tides and Currents Weather Stations Pressure Air Temp Water Temp Dewpoint Dewpoint Depression Visibility Wind Speed Wind Dir Waves Ship Positions

Nichiryu Maru

Last reported at 2014-Jul-28 07:28 UTC. Time now 2014-Jul-28 08:23 UTC.
Position N 35°19' E 139°39'.

Length 158 m; draft 6.5 m.

Type: Cargo ship. MMSI: 43100939.

Date/timePositionNaut miles runAvg speedWind from/ knotsBaromVisibWave heightAir tempDewpointWater temp
2014-Jul-28 07:28N 35°19' E 139°39'0 0.0
2014-Jul-28 06:31N 35°19' E 139°39'0 0.0
2014-Jul-28 05:28N 35°19' E 139°39'0 0.0
2014-Jul-28 04:31N 35°19' E 139°39'0 0.0
2014-Jul-28 03:31N 35°19' E 139°39'0 0.0
2014-Jul-28 02:28N 35°19' E 139°39'0 0.0
2014-Jul-28 01:28N 35°19' E 139°39'0 0.0
2014-Jul-28 00:28N 35°19' E 139°39'0 0.0
2014-Jul-27 23:31N 35°19' E 139°39'2 1.8
2014-Jul-27 22:33N 35°20' E 139°41'0 0.2
2014-Jul-27 21:33N 35°19' E 139°41'0 0.0
2014-Jul-27 20:33N 35°19' E 139°41'0 0.1
2014-Jul-27 19:33N 35°19' E 139°41'0 0.0
2014-Jul-27 18:33N 35°19' E 139°41'0 0.0
2014-Jul-27 17:33N 35°19' E 139°41'0 0.0
2014-Jul-27 16:30N 35°19' E 139°41'0 0.0
2014-Jul-27 15:33N 35°19' E 139°41'0 0.0
2014-Jul-27 14:33N 35°19' E 139°41'0 0.0
2014-Jul-27 13:33N 35°19' E 139°41'0 0.0
2014-Jul-27 12:30N 35°19' E 139°41'0 0.0
2014-Jul-27 11:33N 35°19' E 139°41'7 7.5
2014-Jul-27 10:34N 35°13' E 139°47'1818.0
2014-Jul-27 09:32N 34°58' E 139°35'4120.1
2014-Jul-27 07:31N 34°32' E 138°56'329 8.4
2014-Jul-25 16:29N 33°46' E 132°22'1919.1
2014-Jul-25 15:29N 33°57' E 132°41'12015.1
2014-Jul-25 07:33N 34°37' E 134°58'1514.9
2014-Jul-25 06:33N 34°39' E 135°16'2 2.3
2014-Jul-25 05:31N 34°41' E 135°13'0 0.0
2014-Jul-25 04:31N 34°41' E 135°13'0 0.0
2014-Jul-25 03:33N 34°41' E 135°13'7 7.1
2014-Jul-25 02:33N 34°34' E 135°14'1919.0
2014-Jul-25 01:33N 34°18' E 135°00'2019.7
2014-Jul-25 00:32N 33°58' E 135°00'17217.2
2014-Jul-24 14:30N 34°26' E 138°26'4318.3
2014-Jul-24 12:10N 34°47' E 139°12'1319.6
2014-Jul-24 11:29N 34°56' E 139°23'1819.6
2014-Jul-24 10:33N 35°06' E 139°42'1312.5
2014-Jul-24 09:34N 35°19' E 139°43'3 3.3
2014-Jul-24 08:30N 35°19' E 139°39'0 0.0
2014-Jul-24 07:33N 35°19' E 139°39'0 0.0
2014-Jul-24 06:33N 35°19' E 139°39'0 0.0
2014-Jul-24 05:33N 35°19' E 139°39'0 0.0
2014-Jul-24 04:30N 35°19' E 139°39'5 5.0
2014-Jul-24 03:33N 35°18' E 139°45'1413.9
2014-Jul-24 02:33N 35°04' E 139°41'1615.6
2014-Jul-24 01:33N 34°53' E 139°28'25919.2
2014-Jul-23 12:05N 33°11' E 134°41'205 4.5
2014-Jul-21 14:31N 34°27' E 138°30'5216.4
2014-Jul-21 11:22N 34°55' E 139°23'1416.8
2014-Jul-21 10:33N 35°03' E 139°36'1515.0
2014-Jul-21 09:34N 35°16' E 139°46'6 5.8
2014-Jul-21 08:27N 35°19' E 139°39'0 0.0
2014-Jul-21 07:33N 35°19' E 139°39'0 0.0
2014-Jul-21 06:33N 35°19' E 139°39'0 0.0
2014-Jul-21 05:33N 35°19' E 139°39'0 0.0
2014-Jul-21 04:33N 35°19' E 139°39'0 0.0
2014-Jul-21 03:33N 35°19' E 139°39'0 0.0
2014-Jul-21 02:33N 35°19' E 139°39'0 0.0
2014-Jul-21 01:33N 35°19' E 139°39'0 0.0
2014-Jul-21 00:33N 35°19' E 139°39'0 0.0
2014-Jul-20 23:34N 35°19' E 139°39'1 1.0
2014-Jul-20 22:33N 35°19' E 139°40'1 1.1
2014-Jul-20 21:34N 35°19' E 139°41'0 0.0
2014-Jul-20 20:31N 35°19' E 139°41'0 0.0
2014-Jul-20 19:34N 35°19' E 139°41'0 0.0
2014-Jul-20 18:31N 35°19' E 139°41'0 0.0
2014-Jul-20 17:34N 35°19' E 139°41'0 0.0
2014-Jul-20 16:34N 35°19' E 139°41'0 0.0
2014-Jul-20 15:34N 35°19' E 139°41'0 0.0
2014-Jul-20 14:34N 35°19' E 139°41'0 0.0
2014-Jul-20 13:31N 35°19' E 139°41'0 0.1
2014-Jul-20 12:34N 35°19' E 139°41'7 7.5
2014-Jul-20 11:33N 35°13' E 139°47'1918.8
2014-Jul-20 10:33N 34°58' E 139°34'233 4.7
2014-Jul-18 08:33N 34°35' E 134°52'1717.2
2014-Jul-18 07:33N 34°37' E 135°12'  

Dump ship's entire track history